createdAt,value
2023-01-20T00:00:38.280Z,20.73
2023-01-20T00:05:40.375Z,21.75
2023-01-20T00:10:42.395Z,23.17
2023-01-20T00:15:44.713Z,19.75
2023-01-20T00:20:46.857Z,18.92
2023-01-20T00:25:48.817Z,23.42
2023-01-20T00:30:50.851Z,20.25
2023-01-20T00:35:52.950Z,18.25
2023-01-20T00:40:55.445Z,19.17
2023-01-20T00:45:57.445Z,17.23
2023-01-20T00:50:59.461Z,17.15
2023-01-20T00:56:01.565Z,16.40
2023-01-20T01:01:04.037Z,16.90
2023-01-20T01:06:14.600Z,14.32
2023-01-20T01:11:16.612Z,17.25
2023-01-20T01:16:18.702Z,16.85
2023-01-20T01:21:23.747Z,13.50
2023-01-20T01:26:25.813Z,15.20
2023-01-20T01:31:27.859Z,14.65
2023-01-20T01:36:29.867Z,16.40
2023-01-20T01:41:32.102Z,15.73
2023-01-20T01:46:34.510Z,16.10
2023-01-20T01:51:41.905Z,12.05
2023-01-20T01:56:46.707Z,12.52
2023-01-20T02:07:53.677Z,12.73
2023-01-20T02:12:56.114Z,13.00
2023-01-20T02:18:37.155Z,12.20
2023-01-20T02:24:14.559Z,12.75
2023-01-20T02:29:31.737Z,12.23
2023-01-20T02:34:44.135Z,13.25
2023-01-20T02:40:17.382Z,13.23
2023-01-20T02:50:56.712Z,13.63
2023-01-20T02:55:59.281Z,13.43
2023-01-20T03:01:30.832Z,13.50
2023-01-20T03:06:38.287Z,14.27
2023-01-20T03:11:47.355Z,15.25
2023-01-20T03:16:50.623Z,11.95
2023-01-20T03:21:52.890Z,14.68
2023-01-20T03:26:55.104Z,14.10
2023-01-20T03:32:00.116Z,13.50
2023-01-20T03:37:04.227Z,12.73
2023-01-20T03:42:16.192Z,15.07
2023-01-20T03:47:18.209Z,14.38
2023-01-20T03:52:47.064Z,14.35
2023-01-20T03:57:58.883Z,13.55
2023-01-20T04:03:05.586Z,14.13
2023-01-20T04:08:10.352Z,15.27
2023-01-20T04:13:12.476Z,15.52
2023-01-20T04:18:21.371Z,16.83
2023-01-20T04:24:11.735Z,13.43
2023-01-20T04:29:13.746Z,14.82
2023-01-20T04:34:16.081Z,15.98
2023-01-20T04:39:18.074Z,16.17
2023-01-20T04:44:20.101Z,17.65
2023-01-20T04:49:22.148Z,18.02
2023-01-20T04:54:24.233Z,14.70
2023-01-20T04:59:26.795Z,16.67
2023-01-20T05:04:28.946Z,17.92
2023-01-20T05:09:30.932Z,18.80
2023-01-20T05:14:32.978Z,17.63
2023-01-20T05:19:34.991Z,17.77
2023-01-20T05:24:37.058Z,19.95
2023-01-20T05:29:39.080Z,21.80
2023-01-20T05:34:41.133Z,18.65
2023-01-20T05:39:43.173Z,13.90
2023-01-20T05:44:45.254Z,19.73
2023-01-20T05:49:47.465Z,20.08
2023-01-20T05:54:49.564Z,15.48
2023-01-20T05:59:52.596Z,15.32
2023-01-20T06:04:56.332Z,12.32
2023-01-20T06:09:58.740Z,14.75
2023-01-20T06:15:00.787Z,18.05
2023-01-20T06:20:04.676Z,18.15
2023-01-20T06:25:07.092Z,17.23
2023-01-20T06:30:09.986Z,19.92
2023-01-20T06:35:12.357Z,20.15
2023-01-20T06:40:15.363Z,20.58
2023-01-20T06:45:17.527Z,21.67
2023-01-20T06:50:19.769Z,24.08
2023-01-20T06:55:22.155Z,21.95
2023-01-20T07:00:24.512Z,18.80
2023-01-20T07:05:26.578Z,19.80
2023-01-20T07:10:28.669Z,19.23
2023-01-20T07:15:30.813Z,14.93
2023-01-20T07:20:32.976Z,23.83
2023-01-20T07:25:35.122Z,15.88
2023-01-20T07:30:37.520Z,16.48
2023-01-20T07:35:39.750Z,17.90
2023-01-20T07:40:41.834Z,18.48
2023-01-20T07:45:44.909Z,18.20
2023-01-20T07:50:47.426Z,18.88
2023-01-20T07:55:49.612Z,19.30
2023-01-20T08:00:51.879Z,20.30
2023-01-20T08:05:54.133Z,22.65
2023-01-20T08:10:56.318Z,20.02
2023-01-20T08:16:05.844Z,20.85
2023-01-20T08:21:16.492Z,18.52
2023-01-20T08:26:19.795Z,20.20
2023-01-20T08:31:26.098Z,20.17
2023-01-20T08:36:31.270Z,19.02
2023-01-20T08:41:36.840Z,19.42
2023-01-20T08:46:41.841Z,16.48
2023-01-20T08:51:45.367Z,18.20
2023-01-20T08:56:51.370Z,17.70
2023-01-20T09:01:53.476Z,17.17
2023-01-20T09:06:55.581Z,16.33
2023-01-20T09:11:57.728Z,15.15
2023-01-20T09:17:02.003Z,16.45
2023-01-20T09:22:04.459Z,16.05
2023-01-20T09:27:06.446Z,15.13
2023-01-20T09:32:08.662Z,15.20
2023-01-20T09:37:29.064Z,16.58
2023-01-20T09:43:09.975Z,17.75
2023-01-20T09:48:55.522Z,18.55
2023-01-20T09:54:07.627Z,18.40
2023-01-20T09:59:26.908Z,19.63
2023-01-20T10:04:45.883Z,20.55
2023-01-20T10:10:24.631Z,19.75
2023-01-20T10:15:36.404Z,19.45
2023-01-20T10:20:41.944Z,19.05
2023-01-20T10:26:10.643Z,19.05
2023-01-20T10:31:18.268Z,19.85
2023-01-20T10:36:27.687Z,22.88
2023-01-20T10:41:32.862Z,18.60
2023-01-20T10:47:05.081Z,20.60
2023-01-20T10:52:13.267Z,18.65
2023-01-20T10:57:16.468Z,20.27
2023-01-20T11:02:25.125Z,20.95
2023-01-20T11:07:29.107Z,20.02
2023-01-20T11:12:37.272Z,20.23
2023-01-20T11:17:39.447Z,21.38
2023-01-20T11:22:49.787Z,18.77
2023-01-20T11:27:53.025Z,22.23
2023-01-20T11:33:14.448Z,18.88
2023-01-20T14:01:15.278Z,12.77
2023-01-20T14:06:24.067Z,11.70
2023-01-20T14:11:28.019Z,13.15
2023-01-20T14:16:42.079Z,12.25
2023-01-20T14:21:44.227Z,10.98
2023-01-20T14:26:46.318Z,11.10
2023-01-20T14:31:48.587Z,11.40
2023-01-20T14:36:51.952Z,12.73
2023-01-20T14:41:57.047Z,12.23
2023-01-20T14:47:02.788Z,11.90
2023-01-20T14:57:31.720Z,12.68
2023-01-20T15:02:37.990Z,12.93
2023-01-20T15:07:40.148Z,11.65
2023-01-20T15:12:45.243Z,10.43
2023-01-20T15:18:21.750Z,11.02
2023-01-20T15:23:39.230Z,10.98
2023-01-20T15:28:45.191Z,9.85
2023-01-20T15:33:47.297Z,13.40
2023-01-20T15:38:49.959Z,11.68
2023-01-20T15:43:52.812Z,9.80
2023-01-20T15:53:57.006Z,11.25
2023-01-20T15:58:59.550Z,10.95
2023-01-20T16:04:01.841Z,11.48
2023-01-20T16:09:16.507Z,11.27
2023-01-20T16:14:18.954Z,12.05
2023-01-20T16:19:21.127Z,11.07
2023-01-20T16:24:23.163Z,11.20
2023-01-20T16:29:25.450Z,10.43
2023-01-20T16:34:27.637Z,9.48
2023-01-20T16:39:30.075Z,10.90
2023-01-20T16:44:32.256Z,9.95
2023-01-20T16:49:34.613Z,11.65
2023-01-20T16:54:37.257Z,9.80
2023-01-20T16:59:39.579Z,11.75
2023-01-20T17:04:41.955Z,10.98
2023-01-20T17:09:44.204Z,11.73
2023-01-20T17:14:46.724Z,10.18
2023-01-20T17:19:49.108Z,10.23
2023-01-20T17:24:52.094Z,11.35
2023-01-20T17:29:54.987Z,11.27
2023-01-20T17:34:57.916Z,12.48
2023-01-20T17:40:05.802Z,12.18
2023-01-20T17:45:10.383Z,12.10
2023-01-20T17:50:15.191Z,12.90
2023-01-20T17:55:18.364Z,13.63
2023-01-20T18:00:21.626Z,13.57
2023-01-20T18:05:24.857Z,16.30
2023-01-20T18:10:28.205Z,15.85
2023-01-20T18:15:30.893Z,18.02
2023-01-20T18:20:33.957Z,15.10
2023-01-20T18:25:36.888Z,15.50
2023-01-20T18:30:40.482Z,13.30
2023-01-20T18:35:44.797Z,14.35
2023-01-20T18:40:47.983Z,13.98
2023-01-20T18:45:54.327Z,13.18
2023-01-20T18:51:01.520Z,13.90
2023-01-20T18:56:13.470Z,13.18
2023-01-20T19:01:25.351Z,15.23
2023-01-20T19:06:33.307Z,14.80
2023-01-20T19:11:41.684Z,14.00
2023-01-20T19:16:49.633Z,14.48
2023-01-20T19:21:53.988Z,12.45
2023-01-20T19:26:58.916Z,12.65
2023-01-20T19:32:07.108Z,10.75
2023-01-20T19:37:10.822Z,11.88
2023-01-20T19:42:14.758Z,11.50
2023-01-20T19:47:18.043Z,10.70
2023-01-20T19:52:20.946Z,11.07
2023-01-20T19:57:24.574Z,10.65
2023-01-20T20:02:31.551Z,8.90
2023-01-20T20:07:46.094Z,10.15
2023-01-20T20:12:57.701Z,11.18
2023-01-20T20:18:00.883Z,11.88
2023-01-20T20:23:05.994Z,10.48
2023-01-20T20:28:10.138Z,9.88
2023-01-20T20:33:13.835Z,9.73
2023-01-20T20:38:17.320Z,8.93
2023-01-20T20:43:24.299Z,10.27
2023-01-20T20:48:28.649Z,9.20
2023-01-20T20:53:32.566Z,10.05
2023-01-20T20:58:43.343Z,8.18
2023-01-20T21:03:52.219Z,7.10
2023-01-20T21:08:55.574Z,10.25
2023-01-20T21:13:58.660Z,7.47
2023-01-20T21:19:03.705Z,7.07
2023-01-20T21:24:11.924Z,6.45
2023-01-20T21:29:27.332Z,6.18
2023-01-20T21:34:33.431Z,5.70
2023-01-20T21:39:38.825Z,6.20
2023-01-20T21:44:46.018Z,5.78
2023-01-20T21:50:07.610Z,5.75
2023-01-20T21:55:20.538Z,5.00
2023-01-20T22:00:23.526Z,7.47
2023-01-20T22:05:26.108Z,7.07
2023-01-20T22:10:29.699Z,5.30
2023-01-20T22:15:40.362Z,6.60
2023-01-20T22:20:44.726Z,7.35
2023-01-20T22:25:59.379Z,6.50
2023-01-20T22:31:10.665Z,6.50
2023-01-20T22:36:13.084Z,7.07
2023-01-20T22:41:18.862Z,7.18
2023-01-20T22:46:22.355Z,7.15
2023-01-20T22:51:33.826Z,7.95
2023-01-20T22:56:36.198Z,7.80
2023-01-20T23:01:38.234Z,6.85
2023-01-20T23:06:40.428Z,8.27
2023-01-20T23:11:42.495Z,6.70
2023-01-20T23:16:44.673Z,9.10
2023-01-20T23:21:46.802Z,7.43
2023-01-20T23:26:50.929Z,6.80
2023-01-20T23:31:55.602Z,6.68
2023-01-20T23:36:57.734Z,4.82
2023-01-20T23:41:59.896Z,6.57
2023-01-20T23:47:01.944Z,7.25
2023-01-20T23:52:05.097Z,6.40
2023-01-20T23:57:07.157Z,10.20
